CheckWX is a tool to help pilots better visualize weather data.  It is not intended as a substitute for an official pre-flight weather briefing.

06:46:46 UTC

HTIR METAR
Iringa Airport
Nduli, Tanzania
Current

2 hours ago

HTIR 210500Z 00000KT 9999 FEW015 17/14 Q1022
Observed
May-21 @ 05:00 UTC
Visibility
10,000+ meters
Flight Rules
VFR
Cloud Levels
  • Few at 1,500' AGL
Temperature
17°C / 63°F
Dewpoint
14°C / 57°F
Humidity
83%
Altimeter
30.18" Hg
Pressure
1021.92 hPa
Previous

10 hours ago

HTIR 202100Z 00000KT 9999 FEW016 18/13 Q1021
Observed
May-20 @ 21:00 UTC
Visibility
10,000+ meters
Flight Rules
VFR
Cloud Levels
  • Few at 1,600' AGL
Temperature
18°C / 64°F
Dewpoint
13°C / 55°F
Humidity
73%
Altimeter
30.15" Hg
Pressure
1020.92 hPa